Wolco, Oklahoma
Current Conditions -  °F | °C
As of 1:53 AM on Friday 28 Nov 2014 (Local Time) from KBVO Reporting Station
Clear Clear  
Wind Chill: 26°   Ceiling: Unl
Heat Index: 31°   Visibility: 10mi
Dew Point: 25°   Wind: 5mph
Humidity: 79%   Direction: 180°S
Pressure: 30.22"   Gusts: NA
Location:  36.5242°N, 96.1387°W
Report Text: KBVO 280753Z AUTO 18004KT 10SM CLR M01/M04 A3022 RMK AO2 SLP234 T10061039 $
Loading
Personal Weather Stations






























Interactive Weather Map New forecast layout! Learn more

10-Day Weather Forecast

Advertisements
Track Severe Weather on mobile